createdAt,value
2019-05-09T00:00:35.475Z,94448.00
2019-05-09T00:06:04.835Z,94440.00
2019-05-09T00:11:34.183Z,94437.00
2019-05-09T00:17:03.861Z,94435.00
2019-05-09T00:22:33.826Z,94434.00
2019-05-09T00:28:04.291Z,94427.00
2019-05-09T00:33:34.563Z,94436.00
2019-05-09T00:39:05.890Z,94441.00
2019-05-09T00:44:55.587Z,94428.00
2019-05-09T00:50:24.918Z,94433.00
2019-05-09T00:55:54.274Z,94425.00
2019-05-09T01:01:24.199Z,94425.00
2019-05-09T01:06:54.137Z,94428.00
2019-05-09T01:12:23.689Z,94419.00
2019-05-09T01:17:53.729Z,94411.00
2019-05-09T01:23:23.522Z,94413.00
2019-05-09T01:28:53.873Z,94403.00
2019-05-09T01:34:25.263Z,94397.00
2019-05-09T01:39:54.606Z,94396.00
2019-05-09T01:45:24.851Z,94401.00
2019-05-09T01:50:54.190Z,94402.00
2019-05-09T01:56:23.737Z,94410.00
2019-05-09T02:01:54.235Z,94391.00
2019-05-09T02:07:23.984Z,94397.00
2019-05-09T02:12:53.883Z,94394.00
2019-05-09T02:18:24.935Z,94399.00
2019-05-09T02:23:54.291Z,94402.00
2019-05-09T02:29:24.629Z,94381.00
2019-05-09T02:34:54.804Z,94387.00
2019-05-09T02:40:24.669Z,94384.00
2019-05-09T02:45:59.493Z,94393.00
2019-05-09T02:51:29.631Z,94380.00
2019-05-09T02:56:59.435Z,94377.00
2019-05-09T03:02:48.533Z,94382.00
2019-05-09T03:08:19.211Z,94375.00
2019-05-09T03:13:49.582Z,94368.00
2019-05-09T03:19:19.722Z,94366.00
2019-05-09T03:24:49.148Z,94372.00
2019-05-09T03:30:22.958Z,94360.00
2019-05-09T03:35:52.300Z,94368.00
2019-05-09T03:41:21.646Z,94356.00
2019-05-09T03:46:57.922Z,94356.00
2019-05-09T03:52:27.977Z,94352.00
2019-05-09T03:58:01.806Z,94355.00
2019-05-09T04:03:31.156Z,94357.00
2019-05-09T04:09:00.516Z,94363.00
2019-05-09T04:14:31.509Z,94363.00
2019-05-09T04:20:00.872Z,94355.00
2019-05-09T04:25:31.849Z,94365.00
2019-05-09T04:31:01.245Z,94366.00
2019-05-09T04:36:39.699Z,94368.00
2019-05-09T04:42:09.047Z,94357.00
2019-05-09T04:47:43.244Z,94356.00
2019-05-09T04:53:09.658Z,94358.00
2019-05-09T04:58:38.997Z,94377.00
2019-05-09T05:04:08.891Z,94369.00
2019-05-09T05:09:38.247Z,94372.00
2019-05-09T05:15:10.053Z,94371.00
2019-05-09T05:20:39.413Z,94380.00
2019-05-09T05:26:09.381Z,94373.00
2019-05-09T05:31:38.956Z,94363.00
2019-05-09T05:37:08.311Z,94379.00
2019-05-09T05:42:38.842Z,94368.00
2019-05-09T05:48:12.888Z,94373.00
2019-05-09T05:53:42.238Z,94380.00
2019-05-09T05:59:11.598Z,94385.00
2019-05-09T06:04:40.945Z,94380.00
2019-05-09T06:10:10.423Z,94390.00
2019-05-09T06:15:39.769Z,94388.00
2019-05-09T06:21:09.287Z,94383.00
2019-05-09T06:26:38.650Z,94381.00
2019-05-09T06:32:08.228Z,94392.00
2019-05-09T06:37:38.346Z,94385.00
2019-05-09T06:43:21.197Z,94382.00
2019-05-09T06:48:50.657Z,94378.00
2019-05-09T06:54:20.064Z,94384.00
2019-05-09T06:59:49.572Z,94383.00
2019-05-09T07:05:26.559Z,94386.00
2019-05-09T07:10:55.915Z,94384.00
2019-05-09T07:16:27.530Z,94367.00
2019-05-09T07:22:18.156Z,94369.00
2019-05-09T07:27:48.288Z,94362.00
2019-05-09T07:33:19.651Z,94364.00
2019-05-09T07:38:48.966Z,94365.00
2019-05-09T07:44:18.484Z,94349.00
2019-05-09T07:49:48.235Z,94355.00
2019-05-09T07:55:18.179Z,94355.00
2019-05-09T08:00:48.265Z,94347.00
2019-05-09T08:06:18.466Z,94351.00
2019-05-09T08:11:48.423Z,94347.00
2019-05-09T08:17:18.178Z,94353.00
2019-05-09T08:22:57.400Z,94351.00
2019-05-09T08:28:20.118Z,94361.00
2019-05-09T08:33:49.593Z,94357.00
2019-05-09T08:39:20.559Z,94344.00
2019-05-09T08:44:50.192Z,94338.00
2019-05-09T08:50:28.203Z,94352.00
2019-05-09T08:55:58.078Z,94335.00
2019-05-09T09:01:46.009Z,94335.00
2019-05-09T09:06:58.565Z,94335.00
2019-05-09T09:12:34.018Z,94318.00
2019-05-09T09:17:58.880Z,94316.00
2019-05-09T09:23:43.321Z,94311.00
2019-05-09T09:29:00.135Z,94311.00
2019-05-09T09:34:30.058Z,94319.00
2019-05-09T09:39:59.362Z,94308.00
2019-05-09T09:45:28.629Z,94305.00
2019-05-09T09:50:58.112Z,94291.00
2019-05-09T09:56:28.161Z,94287.00
2019-05-09T10:01:59.442Z,94299.00
2019-05-09T10:07:28.722Z,94304.00
2019-05-09T10:13:03.678Z,94299.00
2019-05-09T10:18:38.116Z,94296.00
2019-05-09T10:24:08.059Z,94303.00
2019-05-09T10:29:38.756Z,94310.00
2019-05-09T10:35:08.913Z,94300.00
2019-05-09T10:40:40.003Z,94310.00
2019-05-09T10:46:39.077Z,94306.00
2019-05-09T10:51:58.313Z,94311.00
2019-05-09T10:57:31.423Z,94307.00
2019-05-09T11:02:58.604Z,94312.00
2019-05-09T11:08:28.668Z,94317.00
2019-05-09T11:13:59.014Z,94324.00
2019-05-09T11:19:28.854Z,94347.00
2019-05-09T11:24:58.288Z,94357.00
2019-05-09T11:30:28.177Z,94389.00
2019-05-09T11:35:58.096Z,94399.00
2019-05-09T11:41:29.400Z,94413.00
2019-05-09T11:46:58.505Z,94423.00
2019-05-09T11:52:28.850Z,94421.00
2019-05-09T11:57:59.182Z,94369.00
2019-05-09T12:03:28.666Z,94352.00
2019-05-09T12:08:58.751Z,94340.00
2019-05-09T12:14:28.294Z,94340.00
2019-05-09T12:20:09.651Z,94332.00
2019-05-09T12:25:28.594Z,94332.00
2019-05-09T12:30:57.869Z,94335.00
2019-05-09T12:36:28.581Z,94326.00
2019-05-09T12:41:58.105Z,94314.00
2019-05-09T12:47:29.046Z,94316.00
2019-05-09T12:52:58.398Z,94296.00
2019-05-09T12:58:28.115Z,94307.00
2019-05-09T13:03:58.294Z,94316.00
2019-05-09T13:09:28.602Z,94300.00
2019-05-09T13:14:58.107Z,94313.00
2019-05-09T13:20:28.557Z,94289.00
2019-05-09T13:25:58.542Z,94292.00
2019-05-09T13:31:37.986Z,94284.00
2019-05-09T13:37:08.830Z,94290.00
2019-05-09T13:42:39.595Z,94270.00
2019-05-09T13:48:23.986Z,94272.00
2019-05-09T13:53:38.958Z,94271.00
2019-05-09T13:59:08.525Z,94278.00
2019-05-09T14:04:39.648Z,94257.00
2019-05-09T14:10:10.419Z,94260.00
2019-05-09T14:15:39.765Z,94260.00
2019-05-09T14:21:11.036Z,94273.00
2019-05-09T14:26:40.316Z,94278.00
2019-05-09T14:32:09.668Z,94284.00
2019-05-09T14:37:39.904Z,94293.00
2019-05-09T14:43:09.844Z,94272.00
2019-05-09T14:48:41.204Z,94300.00
2019-05-09T14:54:10.553Z,94318.00
2019-05-09T14:59:39.846Z,94329.00
2019-05-09T15:05:10.008Z,94340.00
2019-05-09T15:10:39.299Z,94326.00
2019-05-09T15:16:11.608Z,94333.00
2019-05-09T15:21:40.899Z,94326.00
2019-05-09T15:27:10.189Z,94327.00
2019-05-09T15:32:39.471Z,94328.00
2019-05-09T15:38:08.827Z,94330.00
2019-05-09T15:43:38.257Z,94335.00
2019-05-09T15:49:07.757Z,94324.00
2019-05-09T15:54:38.631Z,94333.00
2019-05-09T16:00:13.013Z,94315.00
2019-05-09T16:05:42.312Z,94314.00
2019-05-09T16:11:11.661Z,94325.00
2019-05-09T16:16:43.538Z,94314.00
2019-05-09T16:22:12.853Z,94340.00
2019-05-09T16:27:42.214Z,94343.00
2019-05-09T16:33:11.512Z,94339.00
2019-05-09T16:38:45.870Z,94340.00
2019-05-09T16:44:13.219Z,94352.00
2019-05-09T16:49:44.881Z,94364.00
2019-05-09T16:55:18.040Z,94352.00
2019-05-09T17:00:50.281Z,94367.00
2019-05-09T17:06:19.682Z,94390.00
2019-05-09T17:11:49.030Z,94392.00
2019-05-09T17:17:19.281Z,94385.00
2019-05-09T17:23:11.593Z,94424.00
2019-05-09T17:28:37.947Z,94407.00
2019-05-09T17:34:07.324Z,94421.00
2019-05-09T17:39:38.637Z,94418.00
2019-05-09T17:45:08.424Z,94440.00
2019-05-09T17:50:38.520Z,94439.00
2019-05-09T17:56:10.882Z,94460.00
2019-05-09T18:01:39.077Z,94465.00
2019-05-09T18:07:08.893Z,94483.00
2019-05-09T18:12:39.283Z,94500.00
2019-05-09T18:18:09.969Z,94508.00
2019-05-09T18:23:39.414Z,94525.00
2019-05-09T18:29:08.828Z,94515.00
2019-05-09T18:34:38.123Z,94529.00
2019-05-09T18:40:08.317Z,94539.00
2019-05-09T18:45:37.703Z,94542.00
2019-05-09T18:51:07.102Z,94528.00
2019-05-09T18:56:36.388Z,94548.00
2019-05-09T19:02:05.743Z,94554.00
2019-05-09T19:07:35.943Z,94577.00
2019-05-09T19:13:05.299Z,94572.00
2019-05-09T19:18:37.773Z,94583.00
2019-05-09T19:24:07.176Z,94602.00
2019-05-09T19:29:36.458Z,94608.00
2019-05-09T19:35:08.989Z,94621.00
2019-05-09T19:40:42.467Z,94623.00
2019-05-09T19:46:12.447Z,94636.00
2019-05-09T19:51:41.763Z,94631.00
2019-05-09T19:57:11.269Z,94634.00
2019-05-09T20:02:40.839Z,94650.00
2019-05-09T20:08:10.134Z,94646.00
2019-05-09T20:13:47.123Z,94672.00
2019-05-09T20:19:16.382Z,94679.00
2019-05-09T20:24:45.826Z,94668.00
2019-05-09T20:30:15.344Z,94679.00
2019-05-09T20:35:44.641Z,94685.00
2019-05-09T20:41:14.083Z,94699.00
2019-05-09T20:46:43.537Z,94703.00
2019-05-09T20:52:14.645Z,94705.00
2019-05-09T20:57:44.120Z,94718.00
2019-05-09T21:03:13.576Z,94714.00
2019-05-09T21:08:43.107Z,94717.00
2019-05-09T21:14:14.110Z,94731.00
2019-05-09T21:19:43.585Z,94732.00
2019-05-09T21:25:13.295Z,94737.00
2019-05-09T21:30:43.089Z,94745.00
2019-05-09T21:36:13.434Z,94759.00
2019-05-09T21:41:42.748Z,94763.00
2019-05-09T21:47:12.091Z,94753.00
2019-05-09T21:52:41.400Z,94767.00
2019-05-09T21:58:12.630Z,94770.00
2019-05-09T22:03:43.004Z,94765.00
2019-05-09T22:09:13.175Z,94774.00
2019-05-09T22:14:42.612Z,94784.00
2019-05-09T22:20:14.160Z,94781.00
2019-05-09T22:25:44.328Z,94790.00
2019-05-09T22:31:13.601Z,94790.00
2019-05-09T22:36:42.878Z,94798.00
2019-05-09T22:42:12.332Z,94795.00
2019-05-09T22:47:41.860Z,94793.00
2019-05-09T22:53:11.130Z,94799.00
2019-05-09T22:58:40.571Z,94806.00
2019-05-09T23:04:09.866Z,94823.00
2019-05-09T23:09:39.141Z,94826.00
2019-05-09T23:15:10.373Z,94821.00
2019-05-09T23:20:47.251Z,94813.00
2019-05-09T23:26:18.235Z,94822.00
2019-05-09T23:31:49.145Z,94821.00
2019-05-09T23:37:18.412Z,94824.00
2019-05-09T23:42:47.734Z,94828.00
2019-05-09T23:48:16.982Z,94831.00
2019-05-09T23:53:47.903Z,94828.00
2019-05-09T23:59:34.963Z,94830.00
